sensor_id;sensor_type;location;lat;lon;timestamp;temperature;humidity
1411;DHT22;700;51.906;8.404;2023-03-16T00:01:08;3.50;99.90
1411;DHT22;700;51.906;8.404;2023-03-16T00:06:09;3.40;99.90
1411;DHT22;700;51.906;8.404;2023-03-16T00:11:17;3.00;99.90
1411;DHT22;700;51.906;8.404;2023-03-16T00:16:19;3.40;99.90
1411;DHT22;700;51.906;8.404;2023-03-16T00:21:20;3.40;99.90
1411;DHT22;700;51.906;8.404;2023-03-16T00:26:23;3.00;99.90
1411;DHT22;700;51.906;8.404;2023-03-16T00:31:25;3.20;99.90
1411;DHT22;700;51.906;8.404;2023-03-16T00:36:25;3.30;99.90
1411;DHT22;700;51.906;8.404;2023-03-16T00:41:26;3.40;99.90
1411;DHT22;700;51.906;8.404;2023-03-16T00:46:29;3.30;99.90
1411;DHT22;700;51.906;8.404;2023-03-16T00:51:30;2.90;99.90
1411;DHT22;700;51.906;8.404;2023-03-16T00:56:33;3.30;99.90
1411;DHT22;700;51.906;8.404;2023-03-16T01:01:36;2.80;99.90
1411;DHT22;700;51.906;8.404;2023-03-16T01:06:39;3.00;99.90
1411;DHT22;700;51.906;8.404;2023-03-16T01:11:41;3.40;99.90
1411;DHT22;700;51.906;8.404;2023-03-16T01:16:47;3.50;99.90
1411;DHT22;700;51.906;8.404;2023-03-16T01:21:48;3.10;99.90
1411;DHT22;700;51.906;8.404;2023-03-16T01:26:48;2.80;99.90
1411;DHT22;700;51.906;8.404;2023-03-16T01:31:49;3.30;99.90
1411;DHT22;700;51.906;8.404;2023-03-16T01:36:50;3.00;99.90
1411;DHT22;700;51.906;8.404;2023-03-16T01:41:54;3.00;99.90
1411;DHT22;700;51.906;8.404;2023-03-16T01:46:54;3.10;99.90
1411;DHT22;700;51.906;8.404;2023-03-16T01:52:02;2.80;99.90
1411;DHT22;700;51.906;8.404;2023-03-16T01:57:11;3.10;99.90
1411;DHT22;700;51.906;8.404;2023-03-16T02:02:18;3.00;99.90
1411;DHT22;700;51.906;8.404;2023-03-16T02:07:24;3.40;99.90
1411;DHT22;700;51.906;8.404;2023-03-16T02:12:25;3.70;99.90
1411;DHT22;700;51.906;8.404;2023-03-16T02:17:33;3.70;99.90
1411;DHT22;700;51.906;8.404;2023-03-16T02:22:36;3.60;99.90
1411;DHT22;700;51.906;8.404;2023-03-16T02:27:59;3.30;99.90
1411;DHT22;700;51.906;8.404;2023-03-16T02:33:02;3.30;99.90
1411;DHT22;700;51.906;8.404;2023-03-16T02:38:04;3.30;99.90
1411;DHT22;700;51.906;8.404;2023-03-16T02:43:19;3.30;99.90
1411;DHT22;700;51.906;8.404;2023-03-16T02:48:29;3.30;99.90
1411;DHT22;700;51.906;8.404;2023-03-16T02:53:31;3.40;99.90
1411;DHT22;700;51.906;8.404;2023-03-16T02:58:36;3.40;99.90
1411;DHT22;700;51.906;8.404;2023-03-16T03:03:37;3.40;99.90
1411;DHT22;700;51.906;8.404;2023-03-16T03:08:38;3.50;99.90
1411;DHT22;700;51.906;8.404;2023-03-16T03:13:41;3.40;99.90
1411;DHT22;700;51.906;8.404;2023-03-16T03:18:46;3.20;99.90
1411;DHT22;700;51.906;8.404;2023-03-16T03:23:47;3.60;99.90
1411;DHT22;700;51.906;8.404;2023-03-16T03:28:50;3.30;99.90
1411;DHT22;700;51.906;8.404;2023-03-16T03:33:51;3.30;99.90
1411;DHT22;700;51.906;8.404;2023-03-16T03:38:52;3.30;99.90
1411;DHT22;700;51.906;8.404;2023-03-16T03:43:54;3.30;99.90
1411;DHT22;700;51.906;8.404;2023-03-16T03:48:54;3.60;99.90
1411;DHT22;700;51.906;8.404;2023-03-16T03:53:58;3.50;99.90
1411;DHT22;700;51.906;8.404;2023-03-16T03:58:58;3.60;99.90
1411;DHT22;700;51.906;8.404;2023-03-16T04:03:59;3.90;99.90
1411;DHT22;700;51.906;8.404;2023-03-16T04:09:00;3.40;99.90
1411;DHT22;700;51.906;8.404;2023-03-16T04:14:00;3.70;99.90
1411;DHT22;700;51.906;8.404;2023-03-16T04:19:01;3.60;99.90
1411;DHT22;700;51.906;8.404;2023-03-16T04:24:01;3.80;99.90
1411;DHT22;700;51.906;8.404;2023-03-16T04:29:04;3.90;99.90
1411;DHT22;700;51.906;8.404;2023-03-16T04:34:05;3.70;99.90
1411;DHT22;700;51.906;8.404;2023-03-16T04:39:06;3.90;99.90
1411;DHT22;700;51.906;8.404;2023-03-16T04:44:10;4.00;99.90
1411;DHT22;700;51.906;8.404;2023-03-16T04:49:11;4.20;99.90
1411;DHT22;700;51.906;8.404;2023-03-16T04:54:14;4.20;99.90
1411;DHT22;700;51.906;8.404;2023-03-16T04:59:15;4.00;99.90
1411;DHT22;700;51.906;8.404;2023-03-16T05:04:19;4.10;99.90
1411;DHT22;700;51.906;8.404;2023-03-16T05:09:21;4.10;99.90
1411;DHT22;700;51.906;8.404;2023-03-16T05:14:21;4.30;99.90
1411;DHT22;700;51.906;8.404;2023-03-16T05:19:22;4.30;99.90
1411;DHT22;700;51.906;8.404;2023-03-16T05:24:23;4.20;99.90
1411;DHT22;700;51.906;8.404;2023-03-16T05:29:24;4.30;99.90
1411;DHT22;700;51.906;8.404;2023-03-16T05:34:26;4.00;99.90
1411;DHT22;700;51.906;8.404;2023-03-16T05:39:26;3.90;99.90
1411;DHT22;700;51.906;8.404;2023-03-16T05:44:30;4.00;99.90
1411;DHT22;700;51.906;8.404;2023-03-16T05:49:31;3.90;99.90
1411;DHT22;700;51.906;8.404;2023-03-16T05:54:32;4.40;99.90
1411;DHT22;700;51.906;8.404;2023-03-16T05:59:33;4.70;99.90
1411;DHT22;700;51.906;8.404;2023-03-16T06:04:33;4.80;99.90
1411;DHT22;700;51.906;8.404;2023-03-16T06:09:34;4.80;99.90
1411;DHT22;700;51.906;8.404;2023-03-16T06:14:37;4.80;99.90
1411;DHT22;700;51.906;8.404;2023-03-16T06:19:38;5.10;99.90
1411;DHT22;700;51.906;8.404;2023-03-16T06:24:41;5.10;99.90
1411;DHT22;700;51.906;8.404;2023-03-16T06:29:41;5.30;99.90
1411;DHT22;700;51.906;8.404;2023-03-16T06:34:44;5.10;99.90
1411;DHT22;700;51.906;8.404;2023-03-16T06:39:45;5.10;99.90
1411;DHT22;700;51.906;8.404;2023-03-16T06:44:48;5.30;99.90
1411;DHT22;700;51.906;8.404;2023-03-16T06:49:48;5.60;99.90
1411;DHT22;700;51.906;8.404;2023-03-16T06:54:53;5.90;99.90
1411;DHT22;700;51.906;8.404;2023-03-16T06:59:57;6.10;99.90
1411;DHT22;700;51.906;8.404;2023-03-16T07:05:01;6.00;99.90
1411;DHT22;700;51.906;8.404;2023-03-16T07:10:02;6.30;99.90
1411;DHT22;700;51.906;8.404;2023-03-16T07:15:03;6.30;99.90
1411;DHT22;700;51.906;8.404;2023-03-16T07:20:05;6.20;99.90
1411;DHT22;700;51.906;8.404;2023-03-16T07:25:12;6.60;99.90
1411;DHT22;700;51.906;8.404;2023-03-16T07:30:13;6.20;99.90
1411;DHT22;700;51.906;8.404;2023-03-16T07:35:14;6.80;99.90
1411;DHT22;700;51.906;8.404;2023-03-16T07:40:17;6.80;99.90
1411;DHT22;700;51.906;8.404;2023-03-16T07:45:17;6.40;99.90
1411;DHT22;700;51.906;8.404;2023-03-16T07:50:18;6.70;99.90
1411;DHT22;700;51.906;8.404;2023-03-16T07:55:19;7.10;99.90
1411;DHT22;700;51.906;8.404;2023-03-16T08:00:22;7.50;99.90
1411;DHT22;700;51.906;8.404;2023-03-16T08:05:24;8.20;99.90
1411;DHT22;700;51.906;8.404;2023-03-16T08:10:27;8.20;99.90
1411;DHT22;700;51.906;8.404;2023-03-16T08:15:33;8.10;99.90
1411;DHT22;700;51.906;8.404;2023-03-16T08:20:36;8.60;99.90
1411;DHT22;700;51.906;8.404;2023-03-16T08:25:37;9.30;99.90
1411;DHT22;700;51.906;8.404;2023-03-16T08:30:44;10.30;99.90
1411;DHT22;700;51.906;8.404;2023-03-16T08:35:48;11.30;99.90
1411;DHT22;700;51.906;8.404;2023-03-16T08:40:53;12.00;98.20
1411;DHT22;700;51.906;8.404;2023-03-16T08:45:56;12.60;95.00
1411;DHT22;700;51.906;8.404;2023-03-16T08:51:01;12.40;91.00
1411;DHT22;700;51.906;8.404;2023-03-16T08:56:09;12.90;90.60
1411;DHT22;700;51.906;8.404;2023-03-16T09:01:14;13.00;85.70
1411;DHT22;700;51.906;8.404;2023-03-16T09:06:17;12.40;86.90
1411;DHT22;700;51.906;8.404;2023-03-16T09:11:18;12.50;87.10
1411;DHT22;700;51.906;8.404;2023-03-16T09:16:21;12.40;86.10
1411;DHT22;700;51.906;8.404;2023-03-16T09:21:24;13.30;88.00
1411;DHT22;700;51.906;8.404;2023-03-16T09:26:27;15.20;76.10
1411;DHT22;700;51.906;8.404;2023-03-16T09:31:29;16.50;69.20
1411;DHT22;700;51.906;8.404;2023-03-16T09:36:30;17.50;60.60
1411;DHT22;700;51.906;8.404;2023-03-16T09:42:01;17.70;55.30
1411;DHT22;700;51.906;8.404;2023-03-16T09:47:06;18.00;54.60
1411;DHT22;700;51.906;8.404;2023-03-16T09:52:43;20.50;48.40
1411;DHT22;700;51.906;8.404;2023-03-16T09:57:50;19.90;47.30
1411;DHT22;700;51.906;8.404;2023-03-16T10:08:49;20.60;46.90
1411;DHT22;700;51.906;8.404;2023-03-16T10:19:17;19.10;46.60
1411;DHT22;700;51.906;8.404;2023-03-16T10:29:57;16.70;50.40
1411;DHT22;700;51.906;8.404;2023-03-16T10:35:10;17.20;49.20
1411;DHT22;700;51.906;8.404;2023-03-16T10:40:15;16.10;49.90
1411;DHT22;700;51.906;8.404;2023-03-16T10:45:37;15.20;50.00
1411;DHT22;700;51.906;8.404;2023-03-16T10:50:39;14.60;52.50
1411;DHT22;700;51.906;8.404;2023-03-16T10:55:42;14.20;52.90
1411;DHT22;700;51.906;8.404;2023-03-16T11:00:45;14.70;55.10
1411;DHT22;700;51.906;8.404;2023-03-16T11:05:46;14.70;54.30
1411;DHT22;700;51.906;8.404;2023-03-16T11:10:54;14.30;54.20
1411;DHT22;700;51.906;8.404;2023-03-16T11:21:41;11.80;60.00
1411;DHT22;700;51.906;8.404;2023-03-16T11:26:48;11.90;61.60
1411;DHT22;700;51.906;8.404;2023-03-16T11:32:00;11.70;63.30
1411;DHT22;700;51.906;8.404;2023-03-16T11:42:38;12.40;64.80
1411;DHT22;700;51.906;8.404;2023-03-16T11:53:09;12.30;68.70
1411;DHT22;700;51.906;8.404;2023-03-16T12:03:49;13.10;69.40
1411;DHT22;700;51.906;8.404;2023-03-16T12:14:39;13.80;57.90
1411;DHT22;700;51.906;8.404;2023-03-16T12:20:03;12.70;57.60
1411;DHT22;700;51.906;8.404;2023-03-16T12:35:55;12.30;69.00
1411;DHT22;700;51.906;8.404;2023-03-16T12:46:22;12.00;66.20
1411;DHT22;700;51.906;8.404;2023-03-16T12:51:34;11.90;66.70
1411;DHT22;700;51.906;8.404;2023-03-16T12:56:42;12.10;68.40
1411;DHT22;700;51.906;8.404;2023-03-16T13:01:44;12.40;65.70
1411;DHT22;700;51.906;8.404;2023-03-16T13:06:50;12.50;67.40
1411;DHT22;700;51.906;8.404;2023-03-16T13:11:56;12.30;67.30
1411;DHT22;700;51.906;8.404;2023-03-16T13:17:26;13.30;67.70
1411;DHT22;700;51.906;8.404;2023-03-16T13:22:30;12.90;64.80
1411;DHT22;700;51.906;8.404;2023-03-16T13:27:32;12.20;66.50
1411;DHT22;700;51.906;8.404;2023-03-16T13:32:34;12.10;69.10
1411;DHT22;700;51.906;8.404;2023-03-16T13:37:35;12.60;67.20
1411;DHT22;700;51.906;8.404;2023-03-16T13:42:38;12.10;67.90
1411;DHT22;700;51.906;8.404;2023-03-16T13:47:42;12.40;66.30
1411;DHT22;700;51.906;8.404;2023-03-16T13:52:50;12.70;65.30
1411;DHT22;700;51.906;8.404;2023-03-16T13:57:52;13.00;63.60
1411;DHT22;700;51.906;8.404;2023-03-16T14:03:02;13.10;64.90
1411;DHT22;700;51.906;8.404;2023-03-16T14:08:21;13.20;62.50
1411;DHT22;700;51.906;8.404;2023-03-16T14:18:36;12.10;63.70
1411;DHT22;700;51.906;8.404;2023-03-16T14:23:42;11.70;66.20
1411;DHT22;700;51.906;8.404;2023-03-16T14:29:03;11.60;66.60
1411;DHT22;700;51.906;8.404;2023-03-16T14:39:26;11.50;69.90
1411;DHT22;700;51.906;8.404;2023-03-16T14:44:33;11.50;69.80
1411;DHT22;700;51.906;8.404;2023-03-16T14:49:36;11.70;69.90
1411;DHT22;700;51.906;8.404;2023-03-16T14:54:37;12.10;70.20
1411;DHT22;700;51.906;8.404;2023-03-16T14:59:38;12.40;69.50
1411;DHT22;700;51.906;8.404;2023-03-16T15:04:39;12.50;69.20
1411;DHT22;700;51.906;8.404;2023-03-16T15:09:41;12.40;68.40
1411;DHT22;700;51.906;8.404;2023-03-16T15:14:46;12.20;67.90
1411;DHT22;700;51.906;8.404;2023-03-16T15:20:05;12.00;68.80
1411;DHT22;700;51.906;8.404;2023-03-16T15:25:29;11.90;69.70
1411;DHT22;700;51.906;8.404;2023-03-16T15:30:40;11.40;69.90
1411;DHT22;700;51.906;8.404;2023-03-16T15:35:42;11.70;70.70
1411;DHT22;700;51.906;8.404;2023-03-16T15:40:43;11.90;70.50
1411;DHT22;700;51.906;8.404;2023-03-16T15:45:47;11.60;71.10
1411;DHT22;700;51.906;8.404;2023-03-16T15:50:55;11.80;71.50
1411;DHT22;700;51.906;8.404;2023-03-16T15:56:19;12.00;71.70
1411;DHT22;700;51.906;8.404;2023-03-16T16:01:24;12.20;71.90
1411;DHT22;700;51.906;8.404;2023-03-16T16:06:25;12.00;72.00
1411;DHT22;700;51.906;8.404;2023-03-16T16:11:27;12.20;72.50
1411;DHT22;700;51.906;8.404;2023-03-16T16:16:30;12.00;71.40
1411;DHT22;700;51.906;8.404;2023-03-16T16:21:32;11.50;73.20
1411;DHT22;700;51.906;8.404;2023-03-16T16:26:35;11.30;74.70
1411;DHT22;700;51.906;8.404;2023-03-16T16:31:39;11.50;76.30
1411;DHT22;700;51.906;8.404;2023-03-16T16:36:41;11.10;77.20
1411;DHT22;700;51.906;8.404;2023-03-16T16:41:44;11.30;78.60
1411;DHT22;700;51.906;8.404;2023-03-16T16:46:49;11.00;80.20
1411;DHT22;700;51.906;8.404;2023-03-16T16:51:51;11.00;81.50
1411;DHT22;700;51.906;8.404;2023-03-16T16:56:53;11.10;82.30
1411;DHT22;700;51.906;8.404;2023-03-16T17:01:54;11.10;83.40
1411;DHT22;700;51.906;8.404;2023-03-16T17:06:58;11.10;83.70
1411;DHT22;700;51.906;8.404;2023-03-16T17:12:02;10.70;87.40
1411;DHT22;700;51.906;8.404;2023-03-16T17:17:08;10.60;88.60
1411;DHT22;700;51.906;8.404;2023-03-16T17:22:23;10.50;89.60
1411;DHT22;700;51.906;8.404;2023-03-16T17:27:31;10.70;90.70
1411;DHT22;700;51.906;8.404;2023-03-16T17:32:32;10.50;91.40
1411;DHT22;700;51.906;8.404;2023-03-16T17:37:33;10.30;92.80
1411;DHT22;700;51.906;8.404;2023-03-16T17:42:36;10.20;93.20
1411;DHT22;700;51.906;8.404;2023-03-16T17:47:36;10.10;94.70
1411;DHT22;700;51.906;8.404;2023-03-16T17:52:38;10.10;95.50
1411;DHT22;700;51.906;8.404;2023-03-16T17:57:41;10.30;96.20
1411;DHT22;700;51.906;8.404;2023-03-16T18:07:49;9.70;98.70
1411;DHT22;700;51.906;8.404;2023-03-16T18:13:00;9.80;99.30
1411;DHT22;700;51.906;8.404;2023-03-16T18:18:06;10.00;99.20
1411;DHT22;700;51.906;8.404;2023-03-16T18:23:16;10.00;99.50
1411;DHT22;700;51.906;8.404;2023-03-16T18:28:19;9.60;99.90
1411;DHT22;700;51.906;8.404;2023-03-16T18:33:21;9.70;99.90
1411;DHT22;700;51.906;8.404;2023-03-16T18:38:32;9.80;99.90
1411;DHT22;700;51.906;8.404;2023-03-16T18:43:36;9.50;99.90
1411;DHT22;700;51.906;8.404;2023-03-16T18:48:36;9.70;99.90
1411;DHT22;700;51.906;8.404;2023-03-16T18:53:37;9.80;99.90
1411;DHT22;700;51.906;8.404;2023-03-16T18:58:40;9.80;99.90
1411;DHT22;700;51.906;8.404;2023-03-16T19:03:43;9.70;99.90
1411;DHT22;700;51.906;8.404;2023-03-16T19:08:43;9.80;99.90
1411;DHT22;700;51.906;8.404;2023-03-16T19:13:44;9.60;99.90
1411;DHT22;700;51.906;8.404;2023-03-16T19:18:45;9.70;99.90
1411;DHT22;700;51.906;8.404;2023-03-16T19:23:59;9.60;99.90
1411;DHT22;700;51.906;8.404;2023-03-16T19:29:00;9.80;99.90
1411;DHT22;700;51.906;8.404;2023-03-16T19:34:01;9.50;99.90
1411;DHT22;700;51.906;8.404;2023-03-16T19:39:04;9.50;99.90
1411;DHT22;700;51.906;8.404;2023-03-16T19:44:17;9.50;99.90
1411;DHT22;700;51.906;8.404;2023-03-16T19:49:26;9.30;99.90
1411;DHT22;700;51.906;8.404;2023-03-16T19:54:28;9.40;99.90
1411;DHT22;700;51.906;8.404;2023-03-16T19:59:32;9.50;99.90
1411;DHT22;700;51.906;8.404;2023-03-16T20:04:34;9.60;99.90
1411;DHT22;700;51.906;8.404;2023-03-16T20:09:35;9.50;99.90
1411;DHT22;700;51.906;8.404;2023-03-16T20:14:38;9.50;99.90
1411;DHT22;700;51.906;8.404;2023-03-16T20:19:39;9.50;99.90
1411;DHT22;700;51.906;8.404;2023-03-16T20:24:39;9.10;99.90
1411;DHT22;700;51.906;8.404;2023-03-16T20:29:40;9.60;99.90
1411;DHT22;700;51.906;8.404;2023-03-16T20:34:46;9.50;99.90
1411;DHT22;700;51.906;8.404;2023-03-16T20:39:47;9.70;99.90
1411;DHT22;700;51.906;8.404;2023-03-16T20:44:48;9.50;99.90
1411;DHT22;700;51.906;8.404;2023-03-16T20:49:53;9.60;99.90
1411;DHT22;700;51.906;8.404;2023-03-16T20:54:56;9.30;99.90
1411;DHT22;700;51.906;8.404;2023-03-16T21:00:00;9.40;99.90
1411;DHT22;700;51.906;8.404;2023-03-16T21:05:05;9.50;99.90
1411;DHT22;700;51.906;8.404;2023-03-16T21:10:09;9.40;99.90
1411;DHT22;700;51.906;8.404;2023-03-16T21:15:20;9.30;99.90
1411;DHT22;700;51.906;8.404;2023-03-16T21:20:25;9.20;99.90
1411;DHT22;700;51.906;8.404;2023-03-16T21:25:29;9.50;99.90
1411;DHT22;700;51.906;8.404;2023-03-16T21:30:33;9.40;99.90
1411;DHT22;700;51.906;8.404;2023-03-16T21:35:37;9.40;99.90
1411;DHT22;700;51.906;8.404;2023-03-16T21:40:40;9.60;99.90
1411;DHT22;700;51.906;8.404;2023-03-16T21:45:45;9.50;99.90
1411;DHT22;700;51.906;8.404;2023-03-16T21:50:48;9.30;99.90
1411;DHT22;700;51.906;8.404;2023-03-16T21:55:50;9.40;99.90
1411;DHT22;700;51.906;8.404;2023-03-16T22:00:55;9.30;99.90
1411;DHT22;700;51.906;8.404;2023-03-16T22:06:00;9.50;99.90
1411;DHT22;700;51.906;8.404;2023-03-16T22:11:00;9.30;99.90
1411;DHT22;700;51.906;8.404;2023-03-16T22:16:18;9.10;99.90
1411;DHT22;700;51.906;8.404;2023-03-16T22:21:41;9.30;99.90
1411;DHT22;700;51.906;8.404;2023-03-16T22:26:43;9.50;99.90
1411;DHT22;700;51.906;8.404;2023-03-16T22:31:44;9.30;99.90
1411;DHT22;700;51.906;8.404;2023-03-16T22:36:48;9.50;99.90
1411;DHT22;700;51.906;8.404;2023-03-16T22:41:50;9.50;99.90
1411;DHT22;700;51.906;8.404;2023-03-16T22:46:50;8.90;99.90
1411;DHT22;700;51.906;8.404;2023-03-16T22:51:52;8.90;99.90
1411;DHT22;700;51.906;8.404;2023-03-16T22:56:56;9.20;99.90
1411;DHT22;700;51.906;8.404;2023-03-16T23:01:56;9.10;99.90
1411;DHT22;700;51.906;8.404;2023-03-16T23:06:57;9.10;99.90
1411;DHT22;700;51.906;8.404;2023-03-16T23:12:00;9.00;99.90
1411;DHT22;700;51.906;8.404;2023-03-16T23:17:12;8.90;99.90
1411;DHT22;700;51.906;8.404;2023-03-16T23:22:14;8.90;99.90
1411;DHT22;700;51.906;8.404;2023-03-16T23:27:18;8.70;99.90
1411;DHT22;700;51.906;8.404;2023-03-16T23:32:22;8.90;99.90
1411;DHT22;700;51.906;8.404;2023-03-16T23:37:24;9.00;99.90
1411;DHT22;700;51.906;8.404;2023-03-16T23:42:25;9.00;99.90
1411;DHT22;700;51.906;8.404;2023-03-16T23:47:26;9.00;99.90
1411;DHT22;700;51.906;8.404;2023-03-16T23:52:26;8.90;99.90
1411;DHT22;700;51.906;8.404;2023-03-16T23:57:32;9.10;99.90
